Time;durP1;ratioP1;P1;durP2;ratioP2;P2;SDS_P1;SDS_P2;PMS_P1;PMS_P2;Temp;Humidity;BMP_temperature;BMP_pressure;BME280_temperature;BME280_humidity;BME280_pressure;Samples;Min_cycle;Max_cycle;Signal;HPM_P1;HPM_P2
2022/04/15 00:04:44;;;;;;;14.97;7.57;;;;;;;7.90;100.00;100703.91;31353838;28;20037;-81
2022/04/15 00:19:47;;;;;;;13.37;7.30;;;;;;;7.87;100.00;100708.94;31371013;28;20048;-80
2022/04/15 00:34:49;;;;;;;14.77;9.00;;;;;;;7.80;100.00;100710.84;31357868;28;20048;-80
2022/04/15 00:49:51;;;;;;;13.50;7.37;;;;;;;7.67;100.00;100713.16;31380461;28;20053;-81
2022/04/15 01:04:53;;;;;;;17.07;7.53;;;;;;;7.52;100.00;100706.97;31358008;28;20055;-82
2022/04/15 01:19:55;;;;;;;11.50;6.80;;;;;;;7.39;100.00;100699.56;31341973;28;20054;-81
2022/04/15 01:34:57;;;;;;;12.73;6.77;;;;;;;7.32;100.00;100694.91;31336649;28;20062;-80
2022/04/15 01:49:59;;;;;;;16.13;8.97;;;;;;;7.24;100.00;100696.06;31317132;28;20049;-81
2022/04/15 02:05:01;;;;;;;15.87;7.20;;;;;;;7.29;100.00;100709.22;31395476;28;20407;-81
2022/04/15 02:20:04;;;;;;;11.30;7.20;;;;;;;7.16;100.00;100716.88;31367192;28;20056;-80
2022/04/15 02:35:08;;;;;;;14.10;6.80;;;;;;;7.08;100.00;100707.22;31361369;28;20523;-81
2022/04/15 02:50:10;;;;;;;14.63;7.60;;;;;;;7.19;100.00;100705.31;31226424;28;20057;-81
2022/04/15 03:05:12;;;;;;;18.83;11.63;;;;;;;7.33;100.00;100730.81;31244146;28;20132;-82
2022/04/15 03:20:14;;;;;;;15.27;7.10;;;;;;;7.33;100.00;100738.91;31284977;28;20080;-81
2022/04/15 03:35:20;;;;;;;16.03;7.43;;;;;;;7.47;100.00;100752.47;31304152;28;20144;-81
2022/04/15 03:50:22;;;;;;;12.23;7.37;;;;;;;7.70;100.00;100758.34;31235716;28;20141;-82
2022/04/15 04:05:24;;;;;;;14.70;7.93;;;;;;;8.01;100.00;100769.59;31215421;28;20087;-80
2022/04/15 04:20:27;;;;;;;11.23;7.17;;;;;;;8.17;100.00;100770.00;31245942;28;21123;-81
2022/04/15 04:35:29;;;;;;;14.67;7.67;;;;;;;8.53;100.00;100768.84;31271811;28;20080;-82
2022/04/15 04:50:31;;;;;;;17.10;7.97;;;;;;;8.89;100.00;100779.66;31336963;28;20531;-81
2022/04/15 05:05:33;;;;;;;12.03;6.43;;;;;;;9.20;100.00;100781.50;31438880;28;20136;-80
2022/04/15 05:20:37;;;;;;;16.50;7.13;;;;;;;9.38;100.00;100795.00;31360092;28;20088;-81
2022/04/15 05:35:39;;;;;;;14.07;7.57;;;;;;;9.73;100.00;100794.03;31330210;28;20087;-82
2022/04/15 05:50:42;;;;;;;15.03;7.13;;;;;;;10.08;100.00;100803.16;31350288;28;20045;-81
2022/04/15 06:05:44;;;;;;;12.50;7.20;;;;;;;10.15;100.00;100813.97;31370510;28;20045;-81
2022/04/15 06:20:47;;;;;;;13.20;7.53;;;;;;;10.37;100.00;100820.81;31371971;28;20056;-74
2022/04/15 06:35:51;;;;;;;13.40;6.80;;;;;;;10.88;100.00;100821.91;31357871;28;20050;-80
2022/04/15 06:50:54;;;;;;;16.20;6.63;;;;;;;11.34;100.00;100826.13;31253263;28;20061;-80
2022/04/15 07:05:56;;;;;;;17.77;10.30;;;;;;;11.68;100.00;100835.03;31251713;28;20050;-78
2022/04/15 07:20:59;;;;;;;15.87;7.43;;;;;;;12.11;100.00;100842.66;31257775;28;20149;-83
2022/04/15 07:36:03;;;;;;;11.80;6.93;;;;;;;12.40;100.00;100851.94;31271388;28;20056;-76
2022/04/15 07:51:08;;;;;;;13.50;6.77;;;;;;;12.38;100.00;100854.31;31367168;28;20060;-81
2022/04/15 08:06:09;;;;;;;14.77;6.50;;;;;;;12.39;100.00;100855.84;31386609;28;20060;-75
2022/04/15 08:21:11;;;;;;;14.17;6.10;;;;;;;12.59;100.00;100840.34;31358589;28;20061;-74
2022/04/15 08:36:14;;;;;;;11.00;6.13;;;;;;;12.74;97.40;100842.84;31355778;28;20514;-82
2022/04/15 08:51:17;;;;;;;7.57;5.40;;;;;;;13.50;95.17;100835.63;31345082;28;20041;-77
2022/04/15 09:06:19;;;;;;;9.33;6.10;;;;;;;13.62;96.22;100829.56;31302101;28;20057;-79
2022/04/15 09:37:47;;;;;;;9.10;6.13;;;;;;;13.29;94.47;100818.50;31313828;28;20072;-77
2022/04/15 09:52:52;;;;;;;15.23;7.97;;;;;;;13.26;92.32;100819.34;31362630;28;20058;-77
2022/04/15 10:07:55;;;;;;;11.73;7.33;;;;;;;13.34;98.19;100800.13;31384465;28;20073;-77
2022/04/15 10:23:09;;;;;;;11.77;6.37;;;;;;;13.29;94.66;100807.59;31435593;28;20088;-76
2022/04/15 10:38:12;;;;;;;11.70;6.67;;;;;;;13.16;91.36;100808.66;31383783;28;20095;-76
2022/04/15 10:53:26;;;;;;;11.07;6.60;;;;;;;13.21;90.02;100798.03;31392301;28;20067;-76
2022/04/15 11:08:28;;;;;;;10.93;6.60;;;;;;;13.11;91.54;100798.19;31400223;28;20061;-77
2022/04/15 11:23:30;;;;;;;10.77;6.80;;;;;;;13.10;96.69;100793.94;31409534;28;20049;-77
2022/04/15 11:38:33;;;;;;;18.07;11.67;;;;;;;12.92;96.28;100789.59;31363178;28;20485;-76
2022/04/15 11:53:35;;;;;;;21.47;10.90;;;;;;;12.81;96.19;100777.31;31397778;28;20496;-78
2022/04/15 12:08:37;;;;;;;16.10;10.70;;;;;;;12.90;93.84;100761.97;31398030;28;20057;-77
2022/04/15 12:23:39;;;;;;;16.07;10.47;;;;;;;12.97;94.53;100755.63;31334388;28;20503;-77
2022/04/15 12:39:02;;;;;;;23.77;12.10;;;;;;;12.75;93.72;100735.44;31401234;28;20054;-77
2022/04/15 12:54:06;;;;;;;26.23;14.70;;;;;;;12.50;100.00;100736.66;31371820;28;20037;-78
2022/04/15 13:09:08;;;;;;;23.10;14.33;;;;;;;12.40;91.20;100723.97;31342388;28;20088;-76
2022/04/15 13:24:10;;;;;;;27.07;15.00;;;;;;;12.14;92.90;100711.97;31358397;28;20128;-77
2022/04/15 13:39:12;;;;;;;26.60;15.90;;;;;;;12.35;96.24;100719.00;31366175;28;20075;-76
2022/04/15 14:09:35;;;;;;;36.50;19.80;;;;;;;12.01;100.00;100710.25;31360330;28;20481;-76
2022/04/15 14:24:37;;;;;;;39.60;18.07;;;;;;;11.62;100.00;100706.88;31380637;28;20064;-72
2022/04/15 14:39:42;;;;;;;25.57;13.37;;;;;;;11.54;100.00;100707.41;31373187;28;20070;-71
2022/04/15 14:54:44;;;;;;;26.55;15.25;;;;;;;11.79;100.00;100685.31;31383155;28;20127;-71
2022/04/15 15:09:46;;;;;;;27.60;13.70;;;;;;;11.85;100.00;100675.50;31362870;28;20735;-69
2022/04/15 15:40:09;;;;;;;29.93;11.90;;;;;;;11.69;100.00;100667.94;31355207;28;20057;-77
2022/04/15 15:55:11;;;;;;;20.87;12.07;;;;;;;11.34;100.00;100663.03;31395223;28;20060;-73
2022/04/15 16:10:14;;;;;;;21.57;12.27;;;;;;;11.04;100.00;100647.53;31357487;28;20436;-69
2022/04/15 16:25:15;;;;;;;24.50;12.73;;;;;;;10.86;100.00;100645.03;31389326;28;20140;-70
2022/04/15 16:40:18;;;;;;;27.30;14.37;;;;;;;10.66;100.00;100649.50;31358058;28;20396;-71
2022/04/15 17:10:44;;;;;;;23.10;12.60;;;;;;;9.93;100.00;100648.63;31364994;28;20515;-73
2022/04/15 17:25:46;;;;;;;19.73;10.67;;;;;;;9.68;100.00;100661.63;31346493;28;20132;-71
2022/04/15 17:40:49;;;;;;;18.87;11.70;;;;;;;9.56;100.00;100673.72;31361874;28;20499;-73
2022/04/15 17:55:53;;;;;;;21.73;10.70;;;;;;;9.45;100.00;100670.28;31304024;28;20390;-74
2022/04/15 18:10:56;;;;;;;19.43;11.20;;;;;;;9.34;100.00;100661.47;31368689;28;20385;-71
2022/04/15 18:26:01;;;;;;;20.27;9.57;;;;;;;9.28;100.00;100667.69;31384897;28;20428;-73
2022/04/15 18:41:03;;;;;;;22.60;11.47;;;;;;;9.19;100.00;100678.97;31360766;28;20570;-73
2022/04/15 18:56:07;;;;;;;19.60;11.60;;;;;;;9.17;100.00;100665.03;31353689;28;20045;-73
2022/04/15 19:11:09;;;;;;;22.40;12.10;;;;;;;9.28;100.00;100648.72;31375152;28;20072;-72
2022/04/15 19:26:13;;;;;;;21.10;11.97;;;;;;;9.27;100.00;100637.09;31334132;28;20060;-74
2022/04/15 19:41:15;;;;;;;20.47;10.70;;;;;;;9.13;100.00;100632.56;31362405;28;21224;-73
2022/04/15 20:11:59;;;;;;;29.83;12.23;;;;;;;8.86;100.00;100623.41;31337227;28;20516;-73
2022/04/15 20:27:02;;;;;;;19.40;9.17;;;;;;;8.71;100.00;100608.38;31336750;28;20110;-71
2022/04/15 20:42:05;;;;;;;13.40;7.20;;;;;;;8.52;100.00;100615.78;31338105;28;20060;-72
2022/04/15 20:57:07;;;;;;;15.67;8.83;;;;;;;8.41;100.00;100609.63;31340115;28;20045;-72
2022/04/15 21:12:10;;;;;;;23.07;12.37;;;;;;;8.29;100.00;100591.06;31321517;28;20144;-73
2022/04/15 21:27:13;;;;;;;15.97;9.03;;;;;;;8.21;100.00;100581.47;31347794;28;20071;-72
2022/04/15 21:42:16;;;;;;;17.33;8.13;;;;;;;8.14;100.00;100562.53;31348325;28;20064;-72
2022/04/15 21:57:18;;;;;;;21.27;10.37;;;;;;;8.11;100.00;100568.72;31362704;28;20489;-72
2022/04/15 22:12:20;;;;;;;16.20;8.50;;;;;;;8.20;100.00;100560.97;31362743;28;20067;-73
2022/04/15 22:27:21;;;;;;;12.70;8.03;;;;;;;8.25;100.00;100541.66;31361765;28;20057;-72
2022/04/15 22:42:23;;;;;;;13.73;7.10;;;;;;;8.20;100.00;100534.72;31351067;28;20148;-73
2022/04/15 22:57:25;;;;;;;15.50;7.83;;;;;;;7.98;100.00;100521.63;31368306;28;20131;-72
2022/04/15 23:12:30;;;;;;;13.23;7.83;;;;;;;7.72;100.00;100525.53;31375001;28;20048;-72
2022/04/15 23:27:34;;;;;;;17.03;7.57;;;;;;;7.55;100.00;100508.19;31383815;28;20050;-72
2022/04/15 23:42:40;;;;;;;12.90;6.23;;;;;;;7.45;100.00;100504.34;31367260;28;20156;-72
2022/04/15 23:57:42;;;;;;;10.33;5.60;;;;;;;7.44;100.00;100493.91;31391162;28;20049;-72
